createdAt,value
2023-01-13T00:01:13.564Z,87.62
2023-01-13T00:04:16.027Z,88.01
2023-01-13T00:07:18.469Z,88.83
2023-01-13T00:10:21.405Z,88.90
2023-01-13T00:13:26.897Z,88.92
2023-01-13T00:16:29.256Z,89.07
2023-01-13T00:19:31.695Z,89.09
2023-01-13T00:22:35.392Z,89.44
2023-01-13T00:25:37.730Z,90.65
2023-01-13T00:28:40.547Z,91.21
2023-01-13T00:31:42.921Z,90.95
2023-01-13T00:34:45.315Z,90.80
2023-01-13T00:37:47.696Z,90.65
2023-01-13T00:40:57.759Z,89.71
2023-01-13T00:44:00.134Z,89.19
2023-01-13T00:47:02.752Z,89.25
2023-01-13T00:50:06.369Z,89.14
2023-01-13T00:53:08.758Z,88.69
2023-01-13T00:56:30.529Z,88.01
2023-01-13T00:59:41.010Z,88.19
2023-01-13T01:02:43.502Z,88.23
2023-01-13T01:05:46.072Z,88.05
2023-01-13T01:08:48.918Z,88.17
2023-01-13T01:11:51.667Z,88.48
2023-01-13T01:14:54.146Z,88.44
2023-01-13T01:17:56.521Z,88.32
2023-01-13T01:21:02.802Z,88.28
2023-01-13T01:24:05.930Z,88.34
2023-01-13T01:27:08.375Z,88.39
2023-01-13T01:30:11.683Z,88.21
2023-01-13T01:33:14.130Z,88.64
2023-01-13T01:36:19.263Z,88.81
2023-01-13T01:39:22.626Z,88.24
2023-01-13T01:42:43.431Z,88.60
2023-01-13T01:45:45.867Z,88.41
2023-01-13T01:48:48.799Z,87.95
2023-01-13T01:52:02.798Z,87.74
2023-01-13T01:55:08.747Z,87.83
2023-01-13T01:58:12.865Z,87.38
2023-01-13T02:01:16.296Z,87.33
2023-01-13T02:04:25.047Z,87.16
2023-01-13T02:07:30.600Z,87.60
2023-01-13T02:10:33.726Z,87.60
2023-01-13T02:13:36.220Z,87.21
2023-01-13T02:16:47.954Z,87.90
2023-01-13T02:20:27.806Z,87.25
2023-01-13T02:23:58.300Z,87.14
2023-01-13T02:27:16.690Z,87.29
2023-01-13T02:30:59.153Z,87.53
2023-01-13T02:34:25.477Z,87.36
2023-01-13T02:37:31.734Z,87.29
2023-01-13T02:40:59.242Z,86.92
2023-01-13T02:44:07.240Z,87.32
2023-01-13T02:47:22.864Z,87.05
2023-01-13T02:50:31.389Z,86.60
2023-01-13T02:53:57.474Z,86.97
2023-01-13T02:57:01.192Z,87.23
2023-01-13T03:00:07.220Z,87.06
2023-01-13T03:03:09.735Z,87.30
2023-01-13T03:06:51.713Z,87.54
2023-01-13T03:10:08.225Z,86.81
2023-01-13T03:13:56.037Z,87.41
2023-01-13T03:17:13.199Z,87.19
2023-01-13T03:20:26.441Z,87.57
2023-01-13T03:23:37.459Z,87.74
2023-01-13T03:26:43.292Z,87.41
2023-01-13T03:30:09.453Z,87.44
2023-01-13T03:33:17.129Z,87.49
2023-01-13T03:36:25.718Z,87.22
2023-01-13T03:39:34.326Z,87.13
2023-01-13T03:42:40.808Z,87.41
2023-01-13T03:45:47.414Z,87.16
2023-01-13T03:48:56.382Z,87.01
2023-01-13T03:52:05.013Z,87.44
2023-01-13T03:55:15.320Z,88.10
2023-01-13T03:58:23.461Z,88.01
2023-01-13T04:01:34.659Z,87.72
2023-01-13T04:04:59.375Z,87.67
2023-01-13T04:08:15.018Z,87.46
2023-01-13T04:11:35.811Z,87.36
2023-01-13T04:14:39.196Z,87.39
2023-01-13T04:17:42.120Z,87.49
2023-01-13T04:20:47.957Z,87.34
2023-01-13T04:23:51.520Z,87.51
2023-01-13T04:26:54.025Z,86.81
2023-01-13T04:29:56.501Z,86.50
2023-01-13T04:32:59.437Z,86.58
2023-01-13T04:36:01.940Z,86.87
2023-01-13T04:39:04.554Z,86.68
2023-01-13T04:42:06.908Z,86.50
2023-01-13T04:45:09.891Z,86.44
2023-01-13T04:48:12.861Z,85.88
2023-01-13T04:51:15.302Z,86.30
2023-01-13T04:54:17.760Z,86.21
2023-01-13T04:57:20.185Z,85.88
2023-01-13T05:00:23.712Z,85.83
2023-01-13T05:03:26.861Z,86.13
2023-01-13T05:06:30.151Z,86.75
2023-01-13T05:09:32.869Z,86.99
2023-01-13T05:12:53.656Z,86.70
2023-01-13T05:16:24.850Z,87.47
2023-01-13T05:19:29.117Z,87.50
2023-01-13T05:22:50.328Z,88.00
2023-01-13T05:25:52.830Z,88.40
2023-01-13T05:28:55.464Z,88.40
2023-01-13T05:31:58.115Z,88.57
2023-01-13T05:35:00.826Z,88.78
2023-01-13T05:38:03.296Z,88.71
2023-01-13T05:41:24.727Z,88.42
2023-01-13T05:44:27.250Z,88.77
2023-01-13T05:47:29.720Z,87.83
2023-01-13T05:50:32.410Z,87.24
2023-01-13T05:53:43.464Z,87.58
2023-01-13T05:56:45.900Z,86.89
2023-01-13T05:59:48.414Z,87.14
2023-01-13T06:02:51.624Z,86.62
2023-01-13T06:05:58.772Z,86.70
2023-01-13T06:09:01.279Z,87.08
2023-01-13T06:12:04.544Z,87.09
2023-01-13T06:15:07.479Z,86.71
2023-01-13T06:18:10.378Z,86.74
2023-01-13T06:21:13.081Z,86.65
2023-01-13T06:24:15.738Z,86.57
2023-01-13T06:27:18.490Z,86.50
2023-01-13T06:30:21.078Z,86.59
2023-01-13T06:33:30.234Z,86.06
2023-01-13T06:36:41.914Z,86.33
2023-01-13T06:39:44.674Z,86.74
2023-01-13T06:43:26.060Z,87.93
2023-01-13T06:46:29.092Z,88.06
2023-01-13T06:49:31.979Z,88.06
2023-01-13T06:52:34.420Z,88.40
2023-01-13T06:55:37.336Z,87.86
2023-01-13T06:58:39.959Z,87.52
2023-01-13T07:01:42.594Z,87.47
2023-01-13T07:04:46.737Z,87.63
2023-01-13T07:07:49.301Z,87.14
2023-01-13T07:10:52.962Z,86.61
2023-01-13T07:14:17.687Z,87.36
2023-01-13T07:17:25.363Z,87.12
2023-01-13T07:20:30.933Z,87.02
2023-01-13T07:23:36.379Z,85.94
2023-01-13T07:26:38.863Z,85.21
2023-01-13T07:29:41.624Z,84.77
2023-01-13T07:32:44.197Z,83.92
2023-01-13T07:35:47.541Z,83.90
2023-01-13T07:38:50.103Z,83.64
2023-01-13T07:42:11.299Z,83.35
2023-01-13T07:45:15.117Z,83.42
2023-01-13T07:48:17.631Z,83.29
2023-01-13T07:51:20.354Z,83.50
2023-01-13T07:54:35.223Z,83.22
2023-01-13T07:57:42.507Z,82.79
2023-01-13T08:00:48.628Z,82.78
2023-01-13T08:03:51.185Z,83.19
2023-01-13T08:06:53.650Z,83.37
2023-01-13T08:09:56.263Z,83.83
2023-01-13T08:13:17.222Z,84.17
2023-01-13T08:16:19.732Z,84.76
2023-01-13T08:19:22.620Z,84.66
2023-01-13T08:22:25.807Z,84.79
2023-01-13T08:25:29.746Z,84.27
2023-01-13T08:28:33.166Z,84.24
2023-01-13T08:31:35.957Z,84.29
2023-01-13T08:34:38.579Z,84.05
2023-01-13T08:37:41.559Z,83.84
2023-01-13T08:40:44.015Z,83.53
2023-01-13T08:43:46.484Z,83.85
2023-01-13T08:46:49.385Z,83.63
2023-01-13T08:49:51.837Z,83.65
2023-01-13T08:52:54.387Z,83.08
2023-01-13T08:55:56.950Z,82.88
2023-01-13T08:59:00.255Z,83.16
2023-01-13T09:02:04.306Z,83.06
2023-01-13T09:05:08.155Z,83.18
2023-01-13T09:08:10.806Z,83.14
2023-01-13T09:11:37.362Z,83.01
2023-01-13T09:14:40.510Z,84.10
2023-01-13T09:17:43.031Z,83.26
2023-01-13T09:20:46.131Z,82.69
2023-01-13T09:23:48.655Z,82.52
2023-01-13T09:26:51.265Z,81.82
2023-01-13T09:29:53.733Z,81.20
2023-01-13T09:33:18.528Z,80.19
2023-01-13T09:36:21.253Z,81.15
2023-01-13T09:39:23.705Z,81.52
2023-01-13T09:43:33.229Z,81.03
2023-01-13T09:46:51.493Z,81.12
2023-01-13T09:49:58.626Z,80.96
2023-01-13T09:53:01.445Z,80.61
2023-01-13T09:56:05.112Z,80.11
2023-01-13T09:59:12.117Z,79.86
2023-01-13T10:02:40.051Z,79.29
2023-01-13T10:06:31.198Z,79.63
2023-01-13T10:09:51.979Z,78.24
2023-01-13T10:13:13.394Z,77.64
2023-01-13T10:16:30.991Z,76.48
2023-01-13T10:19:59.557Z,75.50
2023-01-13T10:23:26.647Z,75.17
2023-01-13T10:26:44.731Z,75.70
2023-01-13T10:29:47.220Z,75.19
2023-01-13T10:32:56.525Z,75.13
2023-01-13T10:35:59.559Z,75.27
2023-01-13T10:39:16.949Z,74.98
2023-01-13T10:42:22.957Z,76.08
2023-01-13T10:45:25.988Z,77.49
2023-01-13T10:48:58.419Z,77.14
2023-01-13T10:52:02.339Z,77.54
2023-01-13T10:55:25.783Z,78.19
2023-01-13T10:58:28.624Z,78.64
2023-01-13T11:01:34.141Z,78.82
2023-01-13T11:04:39.057Z,79.87
2023-01-13T11:07:58.025Z,78.98
2023-01-13T11:11:00.838Z,79.56
2023-01-13T11:14:26.934Z,78.97
2023-01-13T11:18:01.438Z,79.80
2023-01-13T11:21:09.462Z,79.20
2023-01-13T11:24:37.462Z,80.10
2023-01-13T11:27:59.521Z,80.10
2023-01-13T11:31:11.092Z,79.54
2023-01-13T11:34:36.987Z,80.63
2023-01-13T11:37:45.088Z,79.49
2023-01-13T11:40:50.927Z,79.72
2023-01-13T11:44:25.564Z,79.21
2023-01-13T11:47:28.443Z,79.39
2023-01-13T11:50:54.071Z,79.34
2023-01-13T11:54:08.863Z,80.03
2023-01-13T11:57:35.700Z,80.26
2023-01-13T12:00:56.258Z,79.82
2023-01-13T12:04:26.177Z,79.82
2023-01-13T12:07:36.967Z,80.02
2023-01-13T12:10:47.330Z,80.91
2023-01-13T12:14:15.978Z,80.35
2023-01-13T12:17:47.581Z,80.74
2023-01-13T12:21:07.195Z,80.99
2023-01-13T12:24:46.479Z,81.59
2023-01-13T12:28:14.220Z,80.83
2023-01-13T12:31:19.481Z,81.12
2023-01-13T12:34:39.106Z,80.95
2023-01-13T12:38:23.571Z,80.86
2023-01-13T12:42:04.250Z,80.91
2023-01-13T12:45:12.937Z,81.40
2023-01-13T12:48:57.043Z,80.59
2023-01-13T12:52:09.672Z,80.57
2023-01-13T12:55:16.854Z,80.97
2023-01-13T12:58:28.207Z,80.83
2023-01-13T13:01:35.882Z,80.40
2023-01-13T13:04:51.865Z,80.43
2023-01-13T13:08:06.882Z,79.75
2023-01-13T13:11:42.108Z,79.95
2023-01-13T13:14:47.337Z,79.35
2023-01-13T13:17:58.907Z,79.43
2023-01-13T13:21:09.572Z,79.43
2023-01-13T13:24:12.106Z,79.44
2023-01-13T13:27:18.889Z,79.72
2023-01-13T13:30:34.796Z,79.57
2023-01-13T13:34:09.635Z,79.76
2023-01-13T13:37:27.638Z,79.78
2023-01-13T13:41:02.937Z,80.21
2023-01-13T13:44:36.064Z,80.18
2023-01-13T13:47:39.722Z,80.07
2023-01-13T13:50:48.442Z,79.90
2023-01-13T13:53:51.341Z,80.12
2023-01-13T13:56:54.059Z,80.16
2023-01-13T13:59:59.088Z,80.61
2023-01-13T14:03:19.410Z,80.48
2023-01-13T14:06:24.314Z,80.69
2023-01-13T14:09:28.836Z,81.00
2023-01-13T14:12:38.471Z,81.06
2023-01-13T14:15:41.336Z,81.23
2023-01-13T14:18:48.811Z,81.27
2023-01-13T14:21:51.447Z,81.17
2023-01-13T14:24:58.065Z,81.44
2023-01-13T14:28:18.681Z,81.98
2023-01-13T14:31:22.440Z,82.20
2023-01-13T14:34:32.839Z,82.12
2023-01-13T14:37:39.022Z,83.07
2023-01-13T14:40:45.763Z,83.13
2023-01-13T14:43:50.652Z,83.05
2023-01-13T14:46:56.560Z,83.24
2023-01-13T14:50:23.511Z,83.42
2023-01-13T14:53:39.578Z,83.37
2023-01-13T14:56:53.916Z,83.38
2023-01-13T14:59:59.140Z,83.79
2023-01-13T15:03:08.028Z,83.75
2023-01-13T15:06:25.735Z,83.47
2023-01-13T15:09:41.570Z,83.59
2023-01-13T15:12:44.218Z,83.83
2023-01-13T15:15:51.578Z,83.99
2023-01-13T15:18:56.078Z,84.21
2023-01-13T15:21:58.540Z,84.17
2023-01-13T15:25:00.952Z,83.98
2023-01-13T15:28:04.983Z,84.01
2023-01-13T15:31:07.476Z,84.51
2023-01-13T15:34:10.021Z,84.49
2023-01-13T15:37:13.620Z,84.49
2023-01-13T15:40:20.290Z,84.36
2023-01-13T15:43:42.629Z,84.66
2023-01-13T15:46:45.295Z,85.40
2023-01-13T15:49:47.917Z,85.62
2023-01-13T15:52:50.484Z,85.90
2023-01-13T15:55:56.611Z,85.75
2023-01-13T15:58:59.172Z,85.96
2023-01-13T16:02:01.734Z,86.08
2023-01-13T16:05:05.471Z,86.37
2023-01-13T16:08:18.983Z,86.13
2023-01-13T16:11:21.549Z,86.03
2023-01-13T16:14:24.005Z,86.24
2023-01-13T16:17:30.001Z,86.71
2023-01-13T16:20:34.008Z,85.55
2023-01-13T16:23:36.438Z,85.74
2023-01-13T16:26:38.996Z,86.05
2023-01-13T16:29:42.558Z,86.10
2023-01-13T16:32:45.027Z,85.97
2023-01-13T16:36:10.340Z,85.77
2023-01-13T16:39:21.033Z,85.78
2023-01-13T16:42:23.657Z,85.37
2023-01-13T16:45:27.079Z,85.39
2023-01-13T16:48:29.598Z,85.20
2023-01-13T16:51:33.299Z,84.96
2023-01-13T16:54:35.928Z,84.54
2023-01-13T16:57:38.329Z,84.50
2023-01-13T17:00:41.474Z,84.40
2023-01-13T17:03:44.560Z,84.49
2023-01-13T17:06:58.442Z,84.11
2023-01-13T17:10:01.170Z,83.92
2023-01-13T17:13:14.817Z,84.10
2023-01-13T17:16:24.337Z,83.77
2023-01-13T17:19:27.064Z,83.43
2023-01-13T17:22:30.844Z,83.48
2023-01-13T17:25:33.352Z,83.52
2023-01-13T17:28:35.886Z,83.55
2023-01-13T17:31:39.038Z,83.36
2023-01-13T17:34:41.665Z,83.29
2023-01-13T17:37:44.232Z,83.56
2023-01-13T17:40:47.063Z,83.43
2023-01-13T17:43:49.712Z,83.61
2023-01-13T17:46:52.175Z,83.48
2023-01-13T17:49:55.358Z,83.86
2023-01-13T17:52:57.981Z,83.65
2023-01-13T17:56:00.418Z,83.24
2023-01-13T17:59:02.879Z,83.13
2023-01-13T18:02:05.765Z,83.31
2023-01-13T18:05:08.923Z,82.93
2023-01-13T18:08:11.538Z,83.09
2023-01-13T18:11:15.739Z,83.45
2023-01-13T18:14:23.010Z,83.53
2023-01-13T18:17:25.679Z,83.54
2023-01-13T18:20:48.858Z,83.16
2023-01-13T18:24:09.895Z,82.74
2023-01-13T18:27:22.633Z,82.84
2023-01-13T18:30:28.037Z,82.92
2023-01-13T18:33:30.839Z,82.87
2023-01-13T18:36:33.349Z,82.36
2023-01-13T18:39:37.474Z,82.03
2023-01-13T18:42:54.315Z,81.95
2023-01-13T18:45:57.165Z,82.20
2023-01-13T18:48:59.750Z,82.86
2023-01-13T18:52:02.232Z,82.72
2023-01-13T18:55:05.206Z,82.99
2023-01-13T18:58:08.115Z,82.72
2023-01-13T19:01:10.955Z,82.54
2023-01-13T19:04:15.899Z,82.40
2023-01-13T19:07:23.677Z,82.24
2023-01-13T19:10:31.721Z,82.47
2023-01-13T19:13:37.594Z,82.31
2023-01-13T19:16:40.262Z,82.09
2023-01-13T19:19:48.393Z,82.26
2023-01-13T19:22:54.353Z,82.09
2023-01-13T19:26:06.694Z,82.16
2023-01-13T19:29:09.611Z,82.66
2023-01-13T19:32:13.388Z,82.77
2023-01-13T19:35:18.086Z,82.82
2023-01-13T19:38:21.554Z,82.81
2023-01-13T19:41:43.291Z,82.79
2023-01-13T19:45:04.566Z,83.28
2023-01-13T19:48:08.480Z,84.09
2023-01-13T19:51:14.356Z,84.61
2023-01-13T19:54:17.056Z,84.48
2023-01-13T19:57:20.823Z,84.75
2023-01-13T20:00:25.291Z,85.45
2023-01-13T20:03:31.444Z,85.57
2023-01-13T20:06:34.012Z,85.69
2023-01-13T20:09:36.828Z,85.89
2023-01-13T20:12:39.480Z,85.73
2023-01-13T20:15:42.424Z,86.00
2023-01-13T20:18:49.127Z,85.85
2023-01-13T20:21:51.937Z,85.32
2023-01-13T20:24:55.382Z,85.25
2023-01-13T20:27:58.779Z,85.04
2023-01-13T20:31:04.710Z,85.26
2023-01-13T20:34:07.358Z,85.67
2023-01-13T20:37:09.980Z,85.11
2023-01-13T20:40:15.723Z,84.91
2023-01-13T20:43:18.432Z,84.84
2023-01-13T20:46:22.846Z,84.32
2023-01-13T20:49:27.791Z,84.23
2023-01-13T20:52:30.718Z,84.24
2023-01-13T20:55:33.467Z,84.20
2023-01-13T20:58:38.164Z,84.89
2023-01-13T21:01:40.986Z,84.54
2023-01-13T21:04:43.726Z,84.99
2023-01-13T21:07:46.190Z,84.92
2023-01-13T21:10:49.142Z,85.29
2023-01-13T21:14:10.228Z,85.14
2023-01-13T21:17:33.921Z,85.34
2023-01-13T21:20:39.113Z,86.75
2023-01-13T21:23:43.231Z,86.49
2023-01-13T21:26:45.806Z,85.88
2023-01-13T21:29:48.527Z,85.76
2023-01-13T21:32:51.446Z,86.22
2023-01-13T21:35:53.989Z,86.29
2023-01-13T21:38:59.992Z,86.61
2023-01-13T21:42:21.219Z,86.96
2023-01-13T21:45:42.333Z,87.17
2023-01-13T21:48:44.878Z,86.68
2023-01-13T21:51:47.424Z,86.72
2023-01-13T21:55:08.143Z,87.28
2023-01-13T21:58:13.843Z,87.43
2023-01-13T22:01:16.472Z,87.24
2023-01-13T22:04:22.268Z,87.44
2023-01-13T22:07:27.566Z,88.00
2023-01-13T22:10:32.307Z,88.08
2023-01-13T22:13:53.204Z,88.24
2023-01-13T22:17:00.513Z,87.75
2023-01-13T22:20:03.963Z,87.52
2023-01-13T22:23:06.507Z,87.93
2023-01-13T22:26:09.221Z,87.97
2023-01-13T22:29:11.625Z,88.34
2023-01-13T22:32:15.993Z,87.97
2023-01-13T22:35:19.077Z,88.22
2023-01-13T22:38:21.846Z,87.65
2023-01-13T22:41:24.584Z,87.53
2023-01-13T22:44:27.575Z,87.62
2023-01-13T22:47:31.379Z,87.58
2023-01-13T22:50:34.266Z,87.67
2023-01-13T22:53:37.751Z,88.15
2023-01-13T22:56:40.470Z,87.96
2023-01-13T22:59:43.014Z,88.08
2023-01-13T23:02:45.438Z,88.16
2023-01-13T23:05:48.419Z,88.31
2023-01-13T23:08:51.569Z,88.48
2023-01-13T23:11:54.235Z,88.34
2023-01-13T23:14:56.698Z,88.45
2023-01-13T23:17:59.279Z,88.35
2023-01-13T23:21:10.111Z,88.79
2023-01-13T23:24:12.768Z,88.57
2023-01-13T23:27:15.953Z,88.48
2023-01-13T23:30:19.007Z,88.45
2023-01-13T23:33:21.809Z,88.48
2023-01-13T23:36:26.205Z,88.69
2023-01-13T23:39:28.849Z,88.67
2023-01-13T23:42:31.573Z,88.71
2023-01-13T23:45:34.473Z,88.52
2023-01-13T23:48:37.391Z,88.74
2023-01-13T23:51:39.926Z,89.12
2023-01-13T23:54:42.340Z,89.23
2023-01-13T23:57:44.657Z,89.23
